aviador You're here:

YCCY Decoded Metar

in
Report Time2017-12-11 00:00:00
UTC Time2017-12-11 00:29:31
Flight Rules unknown UNKNOWN
Wind030° at 13 kt
W.Decomp.*RWY 06: 11.3 kt HW 6.5 kt LCW
RWY 12: 13 kt LCW
W.Rank030° ranks 19
Current wind is above 030° avg. (7.6)
VisibilityN/A
Phenomena:N/A
Clouds:N/A
Expected CloudBase > 8,400 ft AGL from Temp-Dew spread
CeilingNone
Temp35°C
Dew Point14°C (28% RH)
Heat Index34.3°C
AAT31.5°C
QNH1012 hPa
Raw Report
METAR YCCY 110000Z AUTO 03013KT //// // ////// 35/14 Q1012=

Extra information for YCCY:More info

Social comments